sensor_id;sensor_type;location;lat;lon;timestamp;P1;durP1;ratioP1;P2;durP2;ratioP2
25359;SDS011;13311;51.386;0.016;2023-06-26T00:00:15;5.15;;;2.22;;
25359;SDS011;13311;51.386;0.016;2023-06-26T00:05:15;5.25;;;2.22;;
25359;SDS011;13311;51.386;0.016;2023-06-26T00:10:16;5.60;;;2.30;;
25359;SDS011;13311;51.386;0.016;2023-06-26T00:15:17;5.72;;;2.28;;
25359;SDS011;13311;51.386;0.016;2023-06-26T00:20:17;6.03;;;2.20;;
25359;SDS011;13311;51.386;0.016;2023-06-26T00:25:18;5.20;;;2.00;;
25359;SDS011;13311;51.386;0.016;2023-06-26T00:30:19;6.88;;;2.55;;
25359;SDS011;13311;51.386;0.016;2023-06-26T00:35:20;8.27;;;2.38;;
25359;SDS011;13311;51.386;0.016;2023-06-26T00:40:21;6.43;;;2.70;;
25359;SDS011;13311;51.386;0.016;2023-06-26T00:45:22;8.27;;;2.30;;
25359;SDS011;13311;51.386;0.016;2023-06-26T00:50:22;9.38;;;3.08;;
25359;SDS011;13311;51.386;0.016;2023-06-26T00:55:23;8.77;;;3.13;;
25359;SDS011;13311;51.386;0.016;2023-06-26T01:00:24;3.78;;;2.30;;
25359;SDS011;13311;51.386;0.016;2023-06-26T01:05:26;7.78;;;2.53;;
25359;SDS011;13311;51.386;0.016;2023-06-26T01:10:28;5.72;;;2.63;;
25359;SDS011;13311;51.386;0.016;2023-06-26T01:15:29;3.45;;;1.70;;
25359;SDS011;13311;51.386;0.016;2023-06-26T01:20:30;7.85;;;2.38;;
25359;SDS011;13311;51.386;0.016;2023-06-26T01:25:35;6.20;;;2.28;;
25359;SDS011;13311;51.386;0.016;2023-06-26T01:30:42;6.63;;;2.35;;
25359;SDS011;13311;51.386;0.016;2023-06-26T01:35:44;5.53;;;2.33;;
25359;SDS011;13311;51.386;0.016;2023-06-26T01:40:45;7.55;;;2.42;;
25359;SDS011;13311;51.386;0.016;2023-06-26T01:45:48;9.98;;;2.35;;
25359;SDS011;13311;51.386;0.016;2023-06-26T01:50:52;5.03;;;2.20;;
25359;SDS011;13311;51.386;0.016;2023-06-26T01:55:55;6.78;;;2.35;;
25359;SDS011;13311;51.386;0.016;2023-06-26T02:01:01;10.25;;;2.75;;
25359;SDS011;13311;51.386;0.016;2023-06-26T02:06:02;5.55;;;2.53;;
25359;SDS011;13311;51.386;0.016;2023-06-26T02:11:03;6.95;;;3.17;;
25359;SDS011;13311;51.386;0.016;2023-06-26T02:16:04;7.13;;;2.60;;
25359;SDS011;13311;51.386;0.016;2023-06-26T02:21:05;8.32;;;3.22;;
25359;SDS011;13311;51.386;0.016;2023-06-26T02:26:06;6.43;;;2.83;;
25359;SDS011;13311;51.386;0.016;2023-06-26T02:31:07;7.95;;;2.85;;
25359;SDS011;13311;51.386;0.016;2023-06-26T02:36:08;9.00;;;2.72;;
25359;SDS011;13311;51.386;0.016;2023-06-26T02:41:08;6.57;;;2.72;;
25359;SDS011;13311;51.386;0.016;2023-06-26T02:46:10;8.02;;;2.50;;
25359;SDS011;13311;51.386;0.016;2023-06-26T02:51:11;9.30;;;2.83;;
25359;SDS011;13311;51.386;0.016;2023-06-26T02:56:11;6.25;;;2.92;;
25359;SDS011;13311;51.386;0.016;2023-06-26T03:01:12;9.77;;;2.88;;
25359;SDS011;13311;51.386;0.016;2023-06-26T03:06:13;8.85;;;2.90;;
25359;SDS011;13311;51.386;0.016;2023-06-26T03:11:14;10.48;;;2.75;;
25359;SDS011;13311;51.386;0.016;2023-06-26T03:16:15;8.70;;;2.80;;
25359;SDS011;13311;51.386;0.016;2023-06-26T03:21:16;7.57;;;2.20;;
25359;SDS011;13311;51.386;0.016;2023-06-26T03:26:17;12.23;;;2.88;;
25359;SDS011;13311;51.386;0.016;2023-06-26T03:31:18;8.35;;;2.30;;
25359;SDS011;13311;51.386;0.016;2023-06-26T03:36:18;9.18;;;2.65;;
25359;SDS011;13311;51.386;0.016;2023-06-26T03:41:19;11.32;;;3.13;;
25359;SDS011;13311;51.386;0.016;2023-06-26T03:46:20;12.60;;;2.47;;
25359;SDS011;13311;51.386;0.016;2023-06-26T03:51:21;12.95;;;2.55;;
25359;SDS011;13311;51.386;0.016;2023-06-26T03:56:22;8.27;;;2.58;;
25359;SDS011;13311;51.386;0.016;2023-06-26T04:01:23;7.15;;;3.03;;
25359;SDS011;13311;51.386;0.016;2023-06-26T04:06:23;9.52;;;2.38;;
25359;SDS011;13311;51.386;0.016;2023-06-26T04:11:24;7.60;;;1.98;;
25359;SDS011;13311;51.386;0.016;2023-06-26T04:16:25;7.45;;;2.53;;
25359;SDS011;13311;51.386;0.016;2023-06-26T04:21:26;11.82;;;2.90;;
25359;SDS011;13311;51.386;0.016;2023-06-26T04:26:27;12.60;;;3.05;;
25359;SDS011;13311;51.386;0.016;2023-06-26T04:31:27;7.25;;;2.50;;
25359;SDS011;13311;51.386;0.016;2023-06-26T04:36:28;7.47;;;2.67;;
25359;SDS011;13311;51.386;0.016;2023-06-26T04:41:29;8.43;;;2.35;;
25359;SDS011;13311;51.386;0.016;2023-06-26T04:46:30;6.88;;;2.60;;
25359;SDS011;13311;51.386;0.016;2023-06-26T04:51:30;9.93;;;3.55;;
25359;SDS011;13311;51.386;0.016;2023-06-26T04:56:31;12.35;;;2.53;;
25359;SDS011;13311;51.386;0.016;2023-06-26T05:01:32;9.00;;;1.83;;
25359;SDS011;13311;51.386;0.016;2023-06-26T05:06:32;3.28;;;2.08;;
25359;SDS011;13311;51.386;0.016;2023-06-26T05:11:33;5.60;;;2.20;;
25359;SDS011;13311;51.386;0.016;2023-06-26T05:16:34;9.02;;;2.40;;
25359;SDS011;13311;51.386;0.016;2023-06-26T05:21:35;5.15;;;2.08;;
25359;SDS011;13311;51.386;0.016;2023-06-26T05:26:36;8.13;;;2.15;;
25359;SDS011;13311;51.386;0.016;2023-06-26T05:31:39;6.82;;;2.00;;
25359;SDS011;13311;51.386;0.016;2023-06-26T05:36:42;8.45;;;2.53;;
25359;SDS011;13311;51.386;0.016;2023-06-26T05:41:45;5.05;;;1.88;;
25359;SDS011;13311;51.386;0.016;2023-06-26T05:46:47;9.18;;;1.83;;
25359;SDS011;13311;51.386;0.016;2023-06-26T05:51:47;5.13;;;1.65;;
25359;SDS011;13311;51.386;0.016;2023-06-26T05:56:48;9.07;;;2.47;;
25359;SDS011;13311;51.386;0.016;2023-06-26T06:01:53;5.18;;;2.03;;
25359;SDS011;13311;51.386;0.016;2023-06-26T06:06:54;6.70;;;2.35;;
25359;SDS011;13311;51.386;0.016;2023-06-26T06:11:55;7.15;;;2.63;;
25359;SDS011;13311;51.386;0.016;2023-06-26T06:16:55;7.68;;;2.80;;
25359;SDS011;13311;51.386;0.016;2023-06-26T06:21:56;7.35;;;2.58;;
25359;SDS011;13311;51.386;0.016;2023-06-26T06:26:57;5.07;;;1.73;;
25359;SDS011;13311;51.386;0.016;2023-06-26T06:31:57;5.13;;;2.45;;
25359;SDS011;13311;51.386;0.016;2023-06-26T06:36:58;9.18;;;2.63;;
25359;SDS011;13311;51.386;0.016;2023-06-26T06:41:59;6.82;;;2.22;;
25359;SDS011;13311;51.386;0.016;2023-06-26T06:47:00;5.75;;;2.67;;
25359;SDS011;13311;51.386;0.016;2023-06-26T06:52:00;7.03;;;2.50;;
25359;SDS011;13311;51.386;0.016;2023-06-26T06:57:01;9.25;;;2.83;;
25359;SDS011;13311;51.386;0.016;2023-06-26T07:02:02;5.55;;;2.35;;
25359;SDS011;13311;51.386;0.016;2023-06-26T07:07:03;8.27;;;2.65;;
25359;SDS011;13311;51.386;0.016;2023-06-26T07:12:04;4.70;;;2.03;;
25359;SDS011;13311;51.386;0.016;2023-06-26T07:17:06;5.47;;;2.00;;
25359;SDS011;13311;51.386;0.016;2023-06-26T07:22:06;4.93;;;1.50;;
25359;SDS011;13311;51.386;0.016;2023-06-26T07:27:07;4.05;;;1.63;;
25359;SDS011;13311;51.386;0.016;2023-06-26T07:32:08;3.28;;;1.55;;
25359;SDS011;13311;51.386;0.016;2023-06-26T07:37:09;4.10;;;1.83;;
25359;SDS011;13311;51.386;0.016;2023-06-26T07:42:09;5.47;;;1.50;;
25359;SDS011;13311;51.386;0.016;2023-06-26T07:47:10;8.68;;;1.67;;
25359;SDS011;13311;51.386;0.016;2023-06-26T07:52:11;3.88;;;1.30;;
25359;SDS011;13311;51.386;0.016;2023-06-26T07:57:12;7.60;;;1.90;;
25359;SDS011;13311;51.386;0.016;2023-06-26T08:02:13;5.35;;;1.80;;
25359;SDS011;13311;51.386;0.016;2023-06-26T08:07:13;3.40;;;1.38;;
25359;SDS011;13311;51.386;0.016;2023-06-26T08:12:14;2.95;;;1.42;;
25359;SDS011;13311;51.386;0.016;2023-06-26T08:17:15;3.17;;;1.27;;
25359;SDS011;13311;51.386;0.016;2023-06-26T08:22:15;4.47;;;1.50;;
25359;SDS011;13311;51.386;0.016;2023-06-26T08:27:16;3.85;;;1.70;;
25359;SDS011;13311;51.386;0.016;2023-06-26T08:32:17;3.83;;;1.60;;
25359;SDS011;13311;51.386;0.016;2023-06-26T08:37:17;5.50;;;1.40;;
25359;SDS011;13311;51.386;0.016;2023-06-26T08:42:18;5.18;;;2.08;;
25359;SDS011;13311;51.386;0.016;2023-06-26T08:47:19;4.65;;;1.15;;
25359;SDS011;13311;51.386;0.016;2023-06-26T08:52:22;2.70;;;1.90;;
25359;SDS011;13311;51.386;0.016;2023-06-26T08:57:24;3.45;;;1.35;;
25359;SDS011;13311;51.386;0.016;2023-06-26T09:02:26;4.30;;;1.80;;
25359;SDS011;13311;51.386;0.016;2023-06-26T09:07:27;3.45;;;1.40;;
25359;SDS011;13311;51.386;0.016;2023-06-26T09:12:28;5.80;;;1.92;;
25359;SDS011;13311;51.386;0.016;2023-06-26T09:17:33;4.68;;;1.63;;
25359;SDS011;13311;51.386;0.016;2023-06-26T09:22:41;3.10;;;1.35;;
25359;SDS011;13311;51.386;0.016;2023-06-26T09:27:43;3.75;;;1.50;;
25359;SDS011;13311;51.386;0.016;2023-06-26T09:32:44;2.92;;;1.40;;
25359;SDS011;13311;51.386;0.016;2023-06-26T09:37:45;3.10;;;1.08;;
25359;SDS011;13311;51.386;0.016;2023-06-26T09:42:45;5.55;;;0.90;;
25359;SDS011;13311;51.386;0.016;2023-06-26T09:47:46;3.60;;;0.95;;
25359;SDS011;13311;51.386;0.016;2023-06-26T09:52:47;5.13;;;1.88;;
25359;SDS011;13311;51.386;0.016;2023-06-26T09:57:49;2.45;;;1.60;;
25359;SDS011;13311;51.386;0.016;2023-06-26T10:02:50;2.85;;;1.08;;
25359;SDS011;13311;51.386;0.016;2023-06-26T10:07:52;10.18;;;1.25;;
25359;SDS011;13311;51.386;0.016;2023-06-26T10:12:56;2.92;;;1.25;;
25359;SDS011;13311;51.386;0.016;2023-06-26T10:18:02;1.80;;;1.00;;
25359;SDS011;13311;51.386;0.016;2023-06-26T10:23:04;3.00;;;1.20;;
25359;SDS011;13311;51.386;0.016;2023-06-26T10:28:07;2.97;;;1.08;;
25359;SDS011;13311;51.386;0.016;2023-06-26T10:33:09;3.35;;;1.20;;
25359;SDS011;13311;51.386;0.016;2023-06-26T10:38:11;2.50;;;1.05;;
25359;SDS011;13311;51.386;0.016;2023-06-26T10:43:13;2.33;;;1.00;;
25359;SDS011;13311;51.386;0.016;2023-06-26T10:48:15;2.05;;;0.98;;
25359;SDS011;13311;51.386;0.016;2023-06-26T11:03:47;3.33;;;1.20;;
25359;SDS011;13311;51.386;0.016;2023-06-26T11:14:05;4.22;;;1.27;;
25359;SDS011;13311;51.386;0.016;2023-06-26T11:19:07;2.75;;;1.00;;
25359;SDS011;13311;51.386;0.016;2023-06-26T11:24:13;2.92;;;1.13;;
25359;SDS011;13311;51.386;0.016;2023-06-26T11:29:14;4.15;;;1.20;;
25359;SDS011;13311;51.386;0.016;2023-06-26T11:34:14;3.47;;;1.00;;
25359;SDS011;13311;51.386;0.016;2023-06-26T11:39:15;3.80;;;1.30;;
25359;SDS011;13311;51.386;0.016;2023-06-26T11:44:16;3.50;;;1.40;;
25359;SDS011;13311;51.386;0.016;2023-06-26T11:49:20;4.25;;;1.05;;
25359;SDS011;13311;51.386;0.016;2023-06-26T11:54:24;1.52;;;0.90;;
25359;SDS011;13311;51.386;0.016;2023-06-26T11:59:36;1.45;;;0.88;;
25359;SDS011;13311;51.386;0.016;2023-06-26T12:04:40;4.07;;;1.70;;
25359;SDS011;13311;51.386;0.016;2023-06-26T12:09:45;3.10;;;1.10;;
25359;SDS011;13311;51.386;0.016;2023-06-26T12:14:47;1.80;;;1.17;;
25359;SDS011;13311;51.386;0.016;2023-06-26T12:19:48;6.15;;;1.10;;
25359;SDS011;13311;51.386;0.016;2023-06-26T12:24:49;1.85;;;1.17;;
25359;SDS011;13311;51.386;0.016;2023-06-26T12:29:51;2.95;;;1.17;;
25359;SDS011;13311;51.386;0.016;2023-06-26T12:34:53;3.58;;;1.02;;
25359;SDS011;13311;51.386;0.016;2023-06-26T12:39:57;2.95;;;1.30;;
25359;SDS011;13311;51.386;0.016;2023-06-26T12:44:58;3.25;;;1.00;;
25359;SDS011;13311;51.386;0.016;2023-06-26T12:50:03;1.92;;;0.82;;
25359;SDS011;13311;51.386;0.016;2023-06-26T12:55:05;3.05;;;1.10;;
25359;SDS011;13311;51.386;0.016;2023-06-26T13:00:07;2.42;;;0.98;;
25359;SDS011;13311;51.386;0.016;2023-06-26T13:05:10;5.10;;;0.95;;
25359;SDS011;13311;51.386;0.016;2023-06-26T13:10:11;2.17;;;1.35;;
25359;SDS011;13311;51.386;0.016;2023-06-26T13:15:12;2.58;;;1.08;;
25359;SDS011;13311;51.386;0.016;2023-06-26T13:20:12;1.88;;;0.90;;
25359;SDS011;13311;51.386;0.016;2023-06-26T13:25:13;3.03;;;1.23;;
25359;SDS011;13311;51.386;0.016;2023-06-26T13:30:14;1.80;;;1.10;;
25359;SDS011;13311;51.386;0.016;2023-06-26T13:35:16;4.70;;;1.65;;
25359;SDS011;13311;51.386;0.016;2023-06-26T13:40:17;2.55;;;1.42;;
25359;SDS011;13311;51.386;0.016;2023-06-26T13:45:17;3.30;;;1.48;;
25359;SDS011;13311;51.386;0.016;2023-06-26T13:50:18;2.20;;;1.15;;
25359;SDS011;13311;51.386;0.016;2023-06-26T13:55:19;2.67;;;1.48;;
25359;SDS011;13311;51.386;0.016;2023-06-26T14:00:22;2.83;;;1.52;;
25359;SDS011;13311;51.386;0.016;2023-06-26T14:05:23;5.10;;;1.63;;
25359;SDS011;13311;51.386;0.016;2023-06-26T14:10:24;2.45;;;1.27;;
25359;SDS011;13311;51.386;0.016;2023-06-26T14:15:25;4.72;;;1.70;;
25359;SDS011;13311;51.386;0.016;2023-06-26T14:20:25;3.00;;;1.23;;
25359;SDS011;13311;51.386;0.016;2023-06-26T14:25:27;4.20;;;1.70;;
25359;SDS011;13311;51.386;0.016;2023-06-26T14:30:28;5.88;;;1.63;;
25359;SDS011;13311;51.386;0.016;2023-06-26T14:35:29;4.22;;;1.90;;
25359;SDS011;13311;51.386;0.016;2023-06-26T14:40:29;5.25;;;1.67;;
25359;SDS011;13311;51.386;0.016;2023-06-26T14:45:30;3.05;;;1.45;;
25359;SDS011;13311;51.386;0.016;2023-06-26T14:50:31;3.60;;;1.33;;
25359;SDS011;13311;51.386;0.016;2023-06-26T14:55:31;4.65;;;1.42;;
25359;SDS011;13311;51.386;0.016;2023-06-26T15:00:32;2.78;;;1.10;;
25359;SDS011;13311;51.386;0.016;2023-06-26T15:05:33;4.25;;;1.13;;
25359;SDS011;13311;51.386;0.016;2023-06-26T15:10:33;7.28;;;1.67;;
25359;SDS011;13311;51.386;0.016;2023-06-26T15:15:34;3.88;;;1.55;;
25359;SDS011;13311;51.386;0.016;2023-06-26T15:20:35;4.40;;;1.15;;
25359;SDS011;13311;51.386;0.016;2023-06-26T15:25:36;6.05;;;1.45;;
25359;SDS011;13311;51.386;0.016;2023-06-26T15:30:36;3.47;;;1.30;;
25359;SDS011;13311;51.386;0.016;2023-06-26T15:35:37;2.50;;;1.20;;
25359;SDS011;13311;51.386;0.016;2023-06-26T15:40:38;3.22;;;1.23;;
25359;SDS011;13311;51.386;0.016;2023-06-26T15:45:38;3.83;;;1.52;;
25359;SDS011;13311;51.386;0.016;2023-06-26T15:50:39;3.88;;;1.13;;
25359;SDS011;13311;51.386;0.016;2023-06-26T15:55:40;3.55;;;1.27;;
25359;SDS011;13311;51.386;0.016;2023-06-26T16:00:41;2.83;;;1.48;;
25359;SDS011;13311;51.386;0.016;2023-06-26T16:05:41;6.55;;;1.52;;
25359;SDS011;13311;51.386;0.016;2023-06-26T16:10:42;5.85;;;1.60;;
25359;SDS011;13311;51.386;0.016;2023-06-26T16:15:43;2.65;;;1.42;;
25359;SDS011;13311;51.386;0.016;2023-06-26T16:20:44;4.00;;;1.38;;
25359;SDS011;13311;51.386;0.016;2023-06-26T16:25:45;3.17;;;1.25;;
25359;SDS011;13311;51.386;0.016;2023-06-26T16:30:47;4.25;;;1.25;;
25359;SDS011;13311;51.386;0.016;2023-06-26T16:35:47;3.88;;;1.50;;
25359;SDS011;13311;51.386;0.016;2023-06-26T16:40:48;14.95;;;1.52;;
25359;SDS011;13311;51.386;0.016;2023-06-26T16:45:49;3.85;;;1.17;;
25359;SDS011;13311;51.386;0.016;2023-06-26T16:50:50;4.93;;;1.40;;
25359;SDS011;13311;51.386;0.016;2023-06-26T16:55:50;2.45;;;1.33;;
25359;SDS011;13311;51.386;0.016;2023-06-26T17:00:51;3.25;;;1.27;;
25359;SDS011;13311;51.386;0.016;2023-06-26T17:05:52;1.88;;;0.90;;
25359;SDS011;13311;51.386;0.016;2023-06-26T17:10:53;4.15;;;1.27;;
25359;SDS011;13311;51.386;0.016;2023-06-26T17:15:54;2.72;;;1.02;;
25359;SDS011;13311;51.386;0.016;2023-06-26T17:20:54;2.35;;;1.27;;
25359;SDS011;13311;51.386;0.016;2023-06-26T17:25:55;5.25;;;1.35;;
25359;SDS011;13311;51.386;0.016;2023-06-26T17:30:59;3.10;;;1.25;;
25359;SDS011;13311;51.386;0.016;2023-06-26T17:35:59;3.67;;;1.50;;
25359;SDS011;13311;51.386;0.016;2023-06-26T17:41:00;4.57;;;1.15;;
25359;SDS011;13311;51.386;0.016;2023-06-26T17:46:01;2.53;;;1.00;;
25359;SDS011;13311;51.386;0.016;2023-06-26T17:51:02;3.78;;;1.30;;
25359;SDS011;13311;51.386;0.016;2023-06-26T17:56:04;3.50;;;1.20;;
25359;SDS011;13311;51.386;0.016;2023-06-26T18:01:05;4.50;;;1.20;;
25359;SDS011;13311;51.386;0.016;2023-06-26T18:06:05;2.55;;;1.15;;
25359;SDS011;13311;51.386;0.016;2023-06-26T18:11:06;4.40;;;1.05;;
25359;SDS011;13311;51.386;0.016;2023-06-26T18:16:07;2.08;;;1.10;;
25359;SDS011;13311;51.386;0.016;2023-06-26T18:21:08;4.84;;;1.28;;
25359;SDS011;13311;51.386;0.016;2023-06-26T18:26:09;2.03;;;1.15;;
25359;SDS011;13311;51.386;0.016;2023-06-26T18:31:10;4.80;;;1.42;;
25359;SDS011;13311;51.386;0.016;2023-06-26T18:36:11;2.50;;;1.25;;
25359;SDS011;13311;51.386;0.016;2023-06-26T18:41:14;4.65;;;1.40;;
25359;SDS011;13311;51.386;0.016;2023-06-26T18:46:15;5.85;;;2.10;;
25359;SDS011;13311;51.386;0.016;2023-06-26T18:51:16;2.40;;;1.25;;
25359;SDS011;13311;51.386;0.016;2023-06-26T18:56:17;4.03;;;1.27;;
25359;SDS011;13311;51.386;0.016;2023-06-26T19:01:19;1.90;;;1.20;;
25359;SDS011;13311;51.386;0.016;2023-06-26T19:06:20;3.60;;;1.48;;
25359;SDS011;13311;51.386;0.016;2023-06-26T19:11:23;1.80;;;1.00;;
25359;SDS011;13311;51.386;0.016;2023-06-26T19:16:23;6.40;;;1.60;;
25359;SDS011;13311;51.386;0.016;2023-06-26T19:21:24;5.90;;;1.38;;
25359;SDS011;13311;51.386;0.016;2023-06-26T19:26:28;4.32;;;0.90;;
25359;SDS011;13311;51.386;0.016;2023-06-26T19:31:28;2.72;;;1.42;;
25359;SDS011;13311;51.386;0.016;2023-06-26T19:36:29;4.60;;;1.80;;
25359;SDS011;13311;51.386;0.016;2023-06-26T19:41:30;4.90;;;1.58;;
25359;SDS011;13311;51.386;0.016;2023-06-26T19:46:30;3.58;;;1.65;;
25359;SDS011;13311;51.386;0.016;2023-06-26T19:51:31;5.53;;;2.40;;
25359;SDS011;13311;51.386;0.016;2023-06-26T19:56:32;8.82;;;3.35;;
25359;SDS011;13311;51.386;0.016;2023-06-26T20:01:33;3.42;;;1.98;;
25359;SDS011;13311;51.386;0.016;2023-06-26T20:06:36;4.97;;;2.30;;
25359;SDS011;13311;51.386;0.016;2023-06-26T20:11:38;4.95;;;1.73;;
25359;SDS011;13311;51.386;0.016;2023-06-26T20:16:39;4.82;;;1.77;;
25359;SDS011;13311;51.386;0.016;2023-06-26T20:21:39;12.18;;;1.90;;
25359;SDS011;13311;51.386;0.016;2023-06-26T20:26:42;5.88;;;1.60;;
25359;SDS011;13311;51.386;0.016;2023-06-26T20:31:43;9.00;;;2.00;;
25359;SDS011;13311;51.386;0.016;2023-06-26T20:36:44;3.47;;;1.42;;
25359;SDS011;13311;51.386;0.016;2023-06-26T20:41:45;16.23;;;2.03;;
25359;SDS011;13311;51.386;0.016;2023-06-26T20:46:46;5.43;;;1.80;;
25359;SDS011;13311;51.386;0.016;2023-06-26T20:51:55;6.03;;;2.05;;
25359;SDS011;13311;51.386;0.016;2023-06-26T20:56:56;6.30;;;2.03;;
25359;SDS011;13311;51.386;0.016;2023-06-26T21:01:57;3.47;;;1.30;;
25359;SDS011;13311;51.386;0.016;2023-06-26T21:06:58;5.75;;;1.48;;
25359;SDS011;13311;51.386;0.016;2023-06-26T21:11:59;3.72;;;1.30;;
25359;SDS011;13311;51.386;0.016;2023-06-26T21:17:01;8.05;;;1.85;;
25359;SDS011;13311;51.386;0.016;2023-06-26T21:22:02;5.10;;;1.50;;
25359;SDS011;13311;51.386;0.016;2023-06-26T21:27:03;4.47;;;1.90;;
25359;SDS011;13311;51.386;0.016;2023-06-26T21:32:05;4.10;;;1.73;;
25359;SDS011;13311;51.386;0.016;2023-06-26T21:37:06;4.18;;;1.40;;
25359;SDS011;13311;51.386;0.016;2023-06-26T21:42:07;4.53;;;1.60;;
25359;SDS011;13311;51.386;0.016;2023-06-26T21:47:08;3.00;;;1.05;;
25359;SDS011;13311;51.386;0.016;2023-06-26T21:52:09;2.75;;;1.33;;
25359;SDS011;13311;51.386;0.016;2023-06-26T21:57:11;2.50;;;1.27;;
25359;SDS011;13311;51.386;0.016;2023-06-26T22:02:12;5.32;;;1.50;;
25359;SDS011;13311;51.386;0.016;2023-06-26T22:07:13;5.60;;;1.45;;
25359;SDS011;13311;51.386;0.016;2023-06-26T22:12:13;5.90;;;1.70;;
25359;SDS011;13311;51.386;0.016;2023-06-26T22:17:14;4.72;;;1.73;;
25359;SDS011;13311;51.386;0.016;2023-06-26T22:22:15;5.13;;;1.95;;
25359;SDS011;13311;51.386;0.016;2023-06-26T22:27:15;6.15;;;2.40;;
25359;SDS011;13311;51.386;0.016;2023-06-26T22:32:16;4.50;;;1.58;;
25359;SDS011;13311;51.386;0.016;2023-06-26T22:37:17;3.80;;;1.98;;
25359;SDS011;13311;51.386;0.016;2023-06-26T22:42:17;8.18;;;1.65;;
25359;SDS011;13311;51.386;0.016;2023-06-26T22:47:18;4.75;;;1.70;;
25359;SDS011;13311;51.386;0.016;2023-06-26T22:52:19;3.25;;;1.67;;
25359;SDS011;13311;51.386;0.016;2023-06-26T22:57:19;9.23;;;1.90;;
25359;SDS011;13311;51.386;0.016;2023-06-26T23:02:20;4.95;;;1.88;;
25359;SDS011;13311;51.386;0.016;2023-06-26T23:07:21;4.20;;;1.90;;
25359;SDS011;13311;51.386;0.016;2023-06-26T23:12:22;7.53;;;2.22;;
25359;SDS011;13311;51.386;0.016;2023-06-26T23:17:22;8.32;;;2.00;;
25359;SDS011;13311;51.386;0.016;2023-06-26T23:22:23;4.43;;;1.67;;
25359;SDS011;13311;51.386;0.016;2023-06-26T23:27:24;10.55;;;2.72;;
25359;SDS011;13311;51.386;0.016;2023-06-26T23:32:24;4.57;;;1.73;;
25359;SDS011;13311;51.386;0.016;2023-06-26T23:37:25;10.85;;;2.63;;
25359;SDS011;13311;51.386;0.016;2023-06-26T23:42:26;9.68;;;2.53;;
25359;SDS011;13311;51.386;0.016;2023-06-26T23:47:27;5.18;;;1.85;;
25359;SDS011;13311;51.386;0.016;2023-06-26T23:52:27;6.38;;;2.33;;
25359;SDS011;13311;51.386;0.016;2023-06-26T23:57:28;6.65;;;2.60;;
